createdAt,value
2019-03-09T00:02:12.364Z,6.30
2019-03-09T00:04:42.999Z,6.30
2019-03-09T00:07:13.609Z,6.30
2019-03-09T00:09:44.735Z,6.30
2019-03-09T00:12:17.044Z,6.40
2019-03-09T00:14:48.642Z,6.40
2019-03-09T00:17:19.344Z,6.40
2019-03-09T00:19:50.123Z,6.40
2019-03-09T00:22:23.039Z,6.40
2019-03-09T00:25:35.440Z,6.30
2019-03-09T00:28:28.336Z,6.30
2019-03-09T00:31:06.977Z,6.30
2019-03-09T00:33:37.577Z,6.40
2019-03-09T00:36:08.227Z,6.40
2019-03-09T00:38:38.799Z,6.40
2019-03-09T00:41:09.487Z,6.40
2019-03-09T00:43:40.401Z,6.40
2019-03-09T00:46:11.458Z,6.40
2019-03-09T00:48:42.005Z,6.40
2019-03-09T00:51:12.572Z,6.50
2019-03-09T00:53:43.940Z,6.40
2019-03-09T00:56:14.749Z,6.40
2019-03-09T00:58:45.284Z,6.50
2019-03-09T01:01:16.099Z,6.50
2019-03-09T01:03:46.740Z,6.50
2019-03-09T01:06:17.269Z,6.50
2019-03-09T01:08:47.992Z,6.40
2019-03-09T01:11:18.599Z,6.40
2019-03-09T01:13:49.275Z,6.40
2019-03-09T01:16:19.856Z,6.40
2019-03-09T01:18:50.427Z,6.40
2019-03-09T01:21:21.026Z,6.40
2019-03-09T01:23:51.985Z,6.40
2019-03-09T01:26:23.588Z,6.50
2019-03-09T01:28:54.219Z,6.50
2019-03-09T01:31:24.810Z,6.60
2019-03-09T01:33:55.469Z,6.60
2019-03-09T01:36:26.180Z,6.60
2019-03-09T01:38:57.180Z,6.60
2019-03-09T01:41:27.813Z,6.60
2019-03-09T01:43:58.488Z,6.60
2019-03-09T01:46:29.479Z,6.60
2019-03-09T01:49:00.023Z,6.60
2019-03-09T01:51:30.751Z,6.60
2019-03-09T01:54:01.433Z,6.60
2019-03-09T01:56:31.969Z,6.50
2019-03-09T01:59:02.638Z,6.60
2019-03-09T02:01:33.315Z,6.60
2019-03-09T02:04:04.021Z,6.60
2019-03-09T02:06:34.761Z,6.60
2019-03-09T02:09:06.639Z,6.60
2019-03-09T02:11:38.971Z,6.70
2019-03-09T02:14:09.567Z,6.60
2019-03-09T02:16:40.287Z,6.70
2019-03-09T02:19:10.886Z,6.70
2019-03-09T02:21:41.520Z,6.70
2019-03-09T02:24:13.225Z,6.70
2019-03-09T02:26:43.896Z,6.70
2019-03-09T02:29:14.540Z,6.70
2019-03-09T02:31:45.371Z,6.70
2019-03-09T02:34:15.971Z,6.70
2019-03-09T02:36:46.522Z,6.70
2019-03-09T02:39:43.552Z,6.70
2019-03-09T02:42:14.490Z,6.70
2019-03-09T02:44:45.468Z,6.70
2019-03-09T02:47:16.077Z,6.70
2019-03-09T02:49:46.855Z,6.70
2019-03-09T02:52:17.574Z,6.80
2019-03-09T02:54:48.220Z,6.80
2019-03-09T02:57:19.164Z,6.80
2019-03-09T02:59:50.033Z,6.80
2019-03-09T03:02:27.002Z,6.80
2019-03-09T03:04:57.661Z,6.90
2019-03-09T03:07:28.783Z,6.90
2019-03-09T03:10:00.802Z,6.90
2019-03-09T03:12:31.690Z,6.90
2019-03-09T03:15:02.213Z,6.90
2019-03-09T03:17:33.488Z,7.00
2019-03-09T03:20:04.519Z,7.00
2019-03-09T03:22:35.081Z,7.00
2019-03-09T03:25:06.066Z,7.00
2019-03-09T03:27:36.692Z,7.00
2019-03-09T03:30:07.403Z,7.00
2019-03-09T03:32:38.059Z,7.00
2019-03-09T03:35:08.995Z,7.10
2019-03-09T03:37:40.142Z,7.10
2019-03-09T03:40:11.968Z,7.00
2019-03-09T03:42:42.612Z,7.00
2019-03-09T03:45:13.432Z,7.00
2019-03-09T03:47:43.982Z,7.00
2019-03-09T03:50:15.053Z,7.00
2019-03-09T03:52:45.990Z,7.00
2019-03-09T03:55:17.021Z,7.00
2019-03-09T03:57:47.805Z,7.10
2019-03-09T04:00:19.006Z,7.10
2019-03-09T04:02:49.901Z,7.20
2019-03-09T04:05:20.469Z,7.20
2019-03-09T04:07:50.990Z,7.20
2019-03-09T04:10:21.858Z,7.20
2019-03-09T04:12:52.670Z,7.20
2019-03-09T04:15:23.724Z,7.20
2019-03-09T04:17:54.340Z,7.20
2019-03-09T04:20:25.002Z,7.20
2019-03-09T04:22:55.648Z,7.20
2019-03-09T04:25:26.319Z,7.30
2019-03-09T04:27:56.955Z,7.30
2019-03-09T04:30:27.594Z,7.30
2019-03-09T04:32:58.194Z,7.30
2019-03-09T04:35:28.824Z,7.30
2019-03-09T04:37:59.589Z,7.30
2019-03-09T04:40:30.173Z,7.30
2019-03-09T04:43:00.894Z,7.30
2019-03-09T04:45:31.519Z,7.30
2019-03-09T04:48:02.223Z,7.40
2019-03-09T04:50:33.001Z,7.40
2019-03-09T04:53:03.734Z,7.40
2019-03-09T04:55:34.245Z,7.40
2019-03-09T04:58:05.247Z,7.50
2019-03-09T05:00:35.938Z,7.50
2019-03-09T05:03:06.613Z,7.50
2019-03-09T05:05:37.189Z,7.60
2019-03-09T05:08:14.916Z,7.60
2019-03-09T05:10:52.721Z,7.70
2019-03-09T05:13:35.923Z,7.70
2019-03-09T05:16:06.661Z,7.80
2019-03-09T05:18:37.508Z,7.80
2019-03-09T05:21:08.192Z,7.80
2019-03-09T05:23:38.906Z,7.90
2019-03-09T05:26:09.661Z,7.90
2019-03-09T05:28:40.303Z,8.00
2019-03-09T05:31:10.860Z,8.10
2019-03-09T05:33:41.591Z,8.20
2019-03-09T05:36:12.205Z,8.20
2019-03-09T05:38:42.845Z,8.30
2019-03-09T05:41:13.383Z,8.30
2019-03-09T05:43:44.023Z,8.40
2019-03-09T05:46:14.553Z,8.40
2019-03-09T05:48:45.151Z,8.40
2019-03-09T05:51:15.791Z,8.40
2019-03-09T05:53:46.377Z,8.40
2019-03-09T05:56:16.931Z,8.40
2019-03-09T05:58:47.656Z,8.40
2019-03-09T06:01:18.267Z,8.50
2019-03-09T06:03:48.856Z,8.50
2019-03-09T06:06:20.216Z,8.50
2019-03-09T06:08:51.528Z,8.50
2019-03-09T06:11:22.193Z,8.50
2019-03-09T06:13:52.854Z,8.50
2019-03-09T06:16:23.466Z,8.50
2019-03-09T06:18:54.030Z,8.50
2019-03-09T06:21:24.938Z,8.50
2019-03-09T06:23:55.510Z,8.50
2019-03-09T06:26:26.221Z,8.50
2019-03-09T06:28:56.909Z,8.50
2019-03-09T06:31:27.542Z,8.50
2019-03-09T06:33:58.130Z,8.50
2019-03-09T06:37:08.913Z,8.50
2019-03-09T06:39:45.208Z,8.50
2019-03-09T06:42:36.767Z,8.50
2019-03-09T06:45:10.350Z,8.60
2019-03-09T06:47:41.366Z,8.60
2019-03-09T06:50:14.452Z,8.60
2019-03-09T06:52:45.153Z,8.60
2019-03-09T06:55:17.183Z,8.70
2019-03-09T06:57:47.734Z,8.70
2019-03-09T07:00:36.406Z,8.80
2019-03-09T07:03:09.001Z,8.90
2019-03-09T07:05:39.646Z,8.90
2019-03-09T07:08:10.193Z,8.90
2019-03-09T07:10:41.057Z,8.90
2019-03-09T07:13:11.785Z,9.00
2019-03-09T07:15:44.538Z,9.00
2019-03-09T07:18:20.434Z,9.00
2019-03-09T07:20:51.158Z,9.00
2019-03-09T07:23:21.741Z,9.00
2019-03-09T07:25:52.742Z,9.10
2019-03-09T07:28:23.497Z,9.10
2019-03-09T07:30:54.167Z,9.10
2019-03-09T07:33:24.863Z,9.20
2019-03-09T07:35:55.607Z,9.20
2019-03-09T07:38:27.403Z,9.20
2019-03-09T07:40:57.964Z,9.30
2019-03-09T07:43:28.676Z,9.40
2019-03-09T07:45:59.365Z,9.40
2019-03-09T07:48:29.878Z,9.40
2019-03-09T07:51:00.789Z,9.40
2019-03-09T07:53:50.532Z,9.50
2019-03-09T07:56:21.165Z,9.50
2019-03-09T07:58:51.839Z,9.60
2019-03-09T08:01:23.931Z,9.70
2019-03-09T08:03:55.568Z,9.70
2019-03-09T08:06:26.564Z,9.80
2019-03-09T08:08:57.473Z,9.80
2019-03-09T08:11:28.866Z,9.80
2019-03-09T08:13:59.840Z,9.80
2019-03-09T08:16:35.876Z,9.90
2019-03-09T08:19:04.393Z,9.90
2019-03-09T08:21:35.245Z,10.00
2019-03-09T08:24:06.222Z,10.10
2019-03-09T08:26:37.271Z,10.20
2019-03-09T08:29:08.326Z,10.40
2019-03-09T08:31:38.998Z,10.50
2019-03-09T08:34:09.897Z,10.60
2019-03-09T08:36:40.734Z,10.70
2019-03-09T08:39:11.701Z,10.90
2019-03-09T08:41:42.742Z,11.00
2019-03-09T08:44:16.085Z,11.10
2019-03-09T08:46:46.938Z,11.00
2019-03-09T08:49:17.726Z,11.00
2019-03-09T08:51:49.852Z,11.00
2019-03-09T08:54:20.728Z,11.00
2019-03-09T08:56:52.065Z,11.00
2019-03-09T08:59:22.863Z,11.00
2019-03-09T09:01:53.519Z,11.00
2019-03-09T09:04:24.199Z,11.10
2019-03-09T09:06:56.901Z,11.20
2019-03-09T09:09:27.509Z,11.20
2019-03-09T09:11:58.251Z,11.30
2019-03-09T09:14:28.805Z,11.30
2019-03-09T09:16:59.645Z,11.40
2019-03-09T09:19:30.210Z,11.50
2019-03-09T09:22:01.218Z,11.60
2019-03-09T09:24:32.845Z,11.80
2019-03-09T09:27:03.525Z,12.00
2019-03-09T09:29:34.113Z,12.10
2019-03-09T09:32:04.951Z,12.30
2019-03-09T09:34:35.501Z,12.50
2019-03-09T09:37:06.221Z,12.60
2019-03-09T09:39:36.791Z,12.70
2019-03-09T09:42:07.431Z,12.80
2019-03-09T09:44:38.183Z,13.10
2019-03-09T09:47:08.891Z,13.40
2019-03-09T09:49:39.502Z,13.60
2019-03-09T09:52:10.270Z,14.00
2019-03-09T09:54:40.946Z,14.50
2019-03-09T09:57:11.607Z,14.40
2019-03-09T09:59:42.315Z,14.20
2019-03-09T10:02:13.916Z,14.60
2019-03-09T10:04:44.546Z,14.80
2019-03-09T10:07:15.259Z,15.00
2019-03-09T10:09:45.900Z,15.00
2019-03-09T10:12:17.996Z,14.80
2019-03-09T10:14:49.184Z,14.60
2019-03-09T10:17:19.930Z,14.30
2019-03-09T10:19:50.580Z,14.10
2019-03-09T10:22:21.173Z,13.90
2019-03-09T10:24:51.819Z,13.80
2019-03-09T10:27:22.845Z,13.80
2019-03-09T10:29:53.545Z,13.70
2019-03-09T10:32:24.093Z,13.70
2019-03-09T10:34:55.751Z,13.80
2019-03-09T10:37:27.434Z,14.10
2019-03-09T10:39:58.052Z,14.20
2019-03-09T10:42:28.643Z,14.20
2019-03-09T10:44:59.615Z,14.10
2019-03-09T10:47:30.360Z,14.20
2019-03-09T10:50:01.350Z,14.20
2019-03-09T10:52:32.035Z,14.10
2019-03-09T10:55:02.550Z,14.00
2019-03-09T10:57:33.356Z,13.90
2019-03-09T11:00:04.931Z,13.90
2019-03-09T11:02:37.725Z,14.20
2019-03-09T11:05:09.523Z,14.50
2019-03-09T11:07:41.498Z,14.90
2019-03-09T11:10:12.222Z,15.00
2019-03-09T11:12:43.385Z,15.20
2019-03-09T11:15:14.191Z,15.40
2019-03-09T11:17:44.982Z,15.50
2019-03-09T11:20:15.822Z,15.50
2019-03-09T11:22:46.562Z,15.40
2019-03-09T11:25:17.234Z,15.50
2019-03-09T11:27:47.841Z,15.30
2019-03-09T11:30:20.489Z,15.20
2019-03-09T11:32:51.239Z,15.10
2019-03-09T11:35:21.800Z,14.80
2019-03-09T11:37:52.820Z,14.50
2019-03-09T11:40:23.625Z,14.20
2019-03-09T11:42:54.693Z,14.00
2019-03-09T11:45:25.318Z,13.80
2019-03-09T11:47:56.026Z,13.70
2019-03-09T11:50:26.593Z,13.70
2019-03-09T11:52:57.263Z,13.70
2019-03-09T11:55:27.959Z,13.70
2019-03-09T11:57:58.749Z,13.80
2019-03-09T12:00:31.949Z,14.00
2019-03-09T12:03:02.505Z,14.10
2019-03-09T12:05:33.063Z,14.30
2019-03-09T12:08:03.704Z,14.40
2019-03-09T12:10:34.377Z,14.40
2019-03-09T12:13:05.711Z,14.50
2019-03-09T12:15:36.277Z,14.70
2019-03-09T12:18:06.815Z,14.90
2019-03-09T12:20:37.537Z,15.10
2019-03-09T12:23:22.170Z,15.20
2019-03-09T12:25:53.088Z,15.40
2019-03-09T12:28:23.708Z,15.80
2019-03-09T12:30:54.402Z,16.10
2019-03-09T12:33:25.928Z,16.40
2019-03-09T12:35:56.603Z,16.70
2019-03-09T12:38:28.252Z,16.80
2019-03-09T12:40:58.884Z,16.90
2019-03-09T12:43:29.718Z,17.10
2019-03-09T12:46:00.436Z,17.10
2019-03-09T12:48:31.725Z,17.00
2019-03-09T12:51:02.450Z,16.90
2019-03-09T12:53:33.165Z,17.00
2019-03-09T12:56:05.441Z,17.20
2019-03-09T12:58:36.188Z,17.30
2019-03-09T13:01:06.808Z,17.40
2019-03-09T13:03:37.444Z,17.50
2019-03-09T13:06:08.180Z,17.70
2019-03-09T13:08:38.744Z,17.80
2019-03-09T13:11:09.576Z,17.80
2019-03-09T13:13:40.251Z,17.70
2019-03-09T13:16:11.071Z,17.40
2019-03-09T13:18:41.796Z,17.10
2019-03-09T13:21:12.493Z,16.80
2019-03-09T13:23:43.209Z,16.60
2019-03-09T13:26:13.961Z,16.50
2019-03-09T13:28:44.612Z,16.40
2019-03-09T13:31:15.194Z,16.30
2019-03-09T13:33:45.846Z,16.20
2019-03-09T13:36:16.464Z,16.00
2019-03-09T13:38:47.165Z,15.80
2019-03-09T13:41:17.834Z,15.60
2019-03-09T13:43:48.635Z,15.40
2019-03-09T13:46:19.277Z,15.30
2019-03-09T13:48:50.039Z,15.00
2019-03-09T13:51:20.851Z,14.80
2019-03-09T13:53:52.031Z,14.60
2019-03-09T13:56:22.679Z,14.50
2019-03-09T13:58:54.327Z,14.40
2019-03-09T14:01:25.941Z,14.30
2019-03-09T14:03:56.873Z,14.10
2019-03-09T14:06:27.493Z,14.00
2019-03-09T14:08:58.124Z,13.90
2019-03-09T14:11:29.140Z,13.80
2019-03-09T14:13:59.831Z,13.70
2019-03-09T14:16:30.853Z,13.60
2019-03-09T14:19:01.556Z,13.50
2019-03-09T14:21:32.297Z,13.50
2019-03-09T14:24:02.968Z,13.40
2019-03-09T14:26:33.710Z,13.40
2019-03-09T14:29:04.436Z,13.30
2019-03-09T14:31:37.382Z,13.40
2019-03-09T14:34:08.020Z,13.40
2019-03-09T14:36:38.709Z,13.50
2019-03-09T14:39:09.556Z,13.60
2019-03-09T14:41:40.487Z,13.70
2019-03-09T14:44:11.129Z,13.80
2019-03-09T14:46:41.926Z,13.90
2019-03-09T14:49:12.688Z,14.00
2019-03-09T14:51:43.299Z,14.00
2019-03-09T14:54:13.879Z,14.10
2019-03-09T14:56:44.417Z,14.10
2019-03-09T14:59:15.023Z,14.00
2019-03-09T15:01:45.746Z,13.90
2019-03-09T15:04:16.381Z,13.70
2019-03-09T15:06:47.089Z,13.60
2019-03-09T15:09:17.805Z,13.40
2019-03-09T15:11:48.671Z,13.30
2019-03-09T15:14:19.438Z,13.20
2019-03-09T15:16:50.392Z,13.10
2019-03-09T15:19:21.087Z,13.20
2019-03-09T15:21:51.673Z,13.10
2019-03-09T15:24:22.350Z,13.00
2019-03-09T15:26:52.943Z,12.80
2019-03-09T15:29:23.565Z,12.70
2019-03-09T15:31:54.178Z,12.60
2019-03-09T15:34:24.861Z,12.50
2019-03-09T15:36:55.767Z,12.50
2019-03-09T15:39:26.489Z,12.60
2019-03-09T15:41:57.170Z,12.70
2019-03-09T15:44:27.815Z,12.80
2019-03-09T15:46:58.526Z,12.70
2019-03-09T15:49:29.251Z,12.80
2019-03-09T15:52:02.467Z,12.80
2019-03-09T15:54:34.161Z,12.80
2019-03-09T15:57:04.767Z,12.80
2019-03-09T15:59:35.474Z,12.70
2019-03-09T16:02:10.503Z,12.60
2019-03-09T16:04:41.167Z,12.50
2019-03-09T16:07:11.787Z,12.50
2019-03-09T16:09:42.774Z,12.50
2019-03-09T16:12:13.724Z,12.40
2019-03-09T16:14:44.485Z,12.40
2019-03-09T16:17:15.055Z,12.30
2019-03-09T16:19:45.719Z,12.20
2019-03-09T16:22:16.362Z,12.20
2019-03-09T16:24:46.945Z,12.10
2019-03-09T16:27:17.627Z,12.10
2019-03-09T16:29:48.257Z,12.00
2019-03-09T16:32:19.183Z,12.00
2019-03-09T16:34:49.792Z,12.00
2019-03-09T16:37:20.555Z,11.90
2019-03-09T16:39:52.249Z,11.80
2019-03-09T16:42:22.927Z,11.70
2019-03-09T16:44:53.618Z,11.60
2019-03-09T16:47:24.207Z,11.50
2019-03-09T16:49:54.861Z,11.40
2019-03-09T16:52:25.596Z,11.30
2019-03-09T16:54:56.176Z,11.20
2019-03-09T16:57:26.728Z,11.20
2019-03-09T16:59:57.471Z,11.30
2019-03-09T17:02:28.492Z,11.20
2019-03-09T17:04:59.514Z,11.20
2019-03-09T17:07:30.869Z,11.10
2019-03-09T17:10:07.616Z,11.10
2019-03-09T17:12:38.536Z,11.00
2019-03-09T17:15:10.641Z,11.00
2019-03-09T17:17:41.280Z,10.90
2019-03-09T17:20:12.145Z,10.90
2019-03-09T17:22:42.937Z,11.00
2019-03-09T17:25:13.818Z,11.00
2019-03-09T17:27:44.560Z,11.10
2019-03-09T17:30:16.430Z,11.10
2019-03-09T17:32:47.130Z,11.20
2019-03-09T17:35:18.041Z,11.20
2019-03-09T17:37:48.775Z,11.30
2019-03-09T17:40:19.469Z,11.30
2019-03-09T17:42:50.217Z,11.30
2019-03-09T17:45:21.171Z,11.40
2019-03-09T17:47:51.834Z,11.40
2019-03-09T17:50:22.490Z,11.40
2019-03-09T17:52:53.145Z,11.40
2019-03-09T17:55:23.845Z,11.40
2019-03-09T17:57:55.526Z,11.30
2019-03-09T18:00:26.794Z,11.10
2019-03-09T18:02:57.349Z,11.00
2019-03-09T18:05:28.068Z,11.00
2019-03-09T18:07:58.773Z,11.00
2019-03-09T18:10:33.451Z,11.00
2019-03-09T18:13:04.094Z,11.00
2019-03-09T18:15:34.849Z,11.10
2019-03-09T18:18:05.603Z,11.00
2019-03-09T18:20:36.453Z,10.90
2019-03-09T18:23:07.134Z,10.80
2019-03-09T18:25:37.707Z,10.70
2019-03-09T18:28:08.406Z,10.60
2019-03-09T18:30:39.020Z,10.60
2019-03-09T18:33:09.716Z,10.60
2019-03-09T18:35:41.774Z,10.60
2019-03-09T18:38:12.761Z,10.50
2019-03-09T18:40:43.432Z,10.50
2019-03-09T18:43:14.001Z,10.50
2019-03-09T18:45:44.531Z,10.60
2019-03-09T18:48:15.230Z,10.60
2019-03-09T18:50:45.872Z,10.60
2019-03-09T18:53:16.843Z,10.70
2019-03-09T18:55:47.413Z,10.70
2019-03-09T18:58:18.127Z,10.80
2019-03-09T19:00:49.879Z,10.90
2019-03-09T19:03:20.473Z,10.90
2019-03-09T19:05:51.168Z,10.90
2019-03-09T19:08:21.732Z,10.80
2019-03-09T19:10:52.448Z,10.80
2019-03-09T19:13:23.211Z,10.70
2019-03-09T19:15:53.764Z,10.60
2019-03-09T19:18:24.515Z,10.60
2019-03-09T19:20:55.191Z,10.60
2019-03-09T19:23:25.706Z,10.60
2019-03-09T19:25:56.415Z,10.70
2019-03-09T19:31:08.805Z,10.80
2019-03-09T19:33:39.514Z,10.80
2019-03-09T19:36:10.203Z,10.90
2019-03-09T19:38:41.012Z,11.00
2019-03-09T19:41:11.687Z,11.10
2019-03-09T19:43:42.291Z,11.20
2019-03-09T19:46:13.095Z,11.20
2019-03-09T19:48:43.751Z,11.30
2019-03-09T19:51:15.439Z,11.30
2019-03-09T19:53:46.026Z,11.30
2019-03-09T19:56:16.682Z,11.30
2019-03-09T19:58:47.357Z,11.30
2019-03-09T20:01:17.986Z,11.30
2019-03-09T20:03:48.547Z,11.30
2019-03-09T20:06:19.299Z,11.10
2019-03-09T20:08:49.939Z,10.90
2019-03-09T20:11:20.609Z,10.90
2019-03-09T20:13:54.381Z,10.80
2019-03-09T20:16:25.023Z,10.80
2019-03-09T20:18:56.828Z,10.90
2019-03-09T20:21:27.552Z,10.90
2019-03-09T20:23:58.291Z,11.00
2019-03-09T20:26:29.345Z,11.00
2019-03-09T20:28:59.877Z,11.00
2019-03-09T20:31:30.595Z,11.00
2019-03-09T20:34:01.235Z,11.10
2019-03-09T20:36:31.997Z,11.20
2019-03-09T20:39:03.056Z,11.20
2019-03-09T20:41:35.400Z,11.30
2019-03-09T20:44:06.099Z,11.30
2019-03-09T20:46:42.080Z,11.40
2019-03-09T20:49:12.878Z,11.40
2019-03-09T20:51:44.692Z,11.50
2019-03-09T20:54:15.340Z,11.50
2019-03-09T20:56:45.977Z,11.50
2019-03-09T20:59:16.659Z,11.50
2019-03-09T21:01:47.245Z,11.50
2019-03-09T21:04:19.053Z,11.50
2019-03-09T21:06:49.823Z,11.50
2019-03-09T21:09:20.589Z,11.50
2019-03-09T21:11:51.339Z,11.30
2019-03-09T21:14:22.171Z,11.00
2019-03-09T21:16:52.965Z,10.80
2019-03-09T21:19:23.597Z,10.70
2019-03-09T21:21:54.403Z,10.60
2019-03-09T21:24:25.180Z,10.50
2019-03-09T21:26:56.183Z,10.50
2019-03-09T21:29:26.973Z,10.40
2019-03-09T21:31:57.732Z,10.30
2019-03-09T21:34:30.870Z,10.30
2019-03-09T21:37:01.557Z,10.30
2019-03-09T21:39:32.337Z,10.20
2019-03-09T21:42:03.278Z,10.20
2019-03-09T21:44:33.881Z,10.10
2019-03-09T21:47:04.787Z,10.10
2019-03-09T21:49:36.057Z,10.10
2019-03-09T21:52:06.629Z,10.00
2019-03-09T21:54:37.337Z,9.90
2019-03-09T21:57:09.216Z,9.90
2019-03-09T21:59:39.878Z,9.90
2019-03-09T22:02:10.501Z,9.90
2019-03-09T22:04:42.603Z,9.90
2019-03-09T22:07:13.383Z,9.80
2019-03-09T22:09:43.943Z,9.80
2019-03-09T22:12:16.055Z,9.80
2019-03-09T22:14:48.074Z,9.80
2019-03-09T22:17:18.769Z,9.80
2019-03-09T22:19:49.435Z,9.70
2019-03-09T22:22:20.233Z,9.70
2019-03-09T22:24:50.833Z,9.70
2019-03-09T22:27:21.499Z,9.70
2019-03-09T22:29:52.367Z,9.70
2019-03-09T22:32:23.030Z,9.70
2019-03-09T22:34:53.589Z,9.70
2019-03-09T22:37:24.300Z,9.70
2019-03-09T22:39:55.039Z,9.70
2019-03-09T22:42:25.605Z,9.60
2019-03-09T22:44:56.614Z,9.60
2019-03-09T22:47:27.473Z,9.60
2019-03-09T22:49:58.222Z,9.60
2019-03-09T22:52:28.820Z,9.70
2019-03-09T22:54:59.594Z,9.70
2019-03-09T22:57:30.307Z,9.70
2019-03-09T23:00:00.916Z,9.70
2019-03-09T23:02:33.484Z,9.70
2019-03-09T23:05:04.295Z,9.80
2019-03-09T23:07:35.175Z,9.80
2019-03-09T23:10:07.471Z,9.70
2019-03-09T23:12:38.532Z,9.80
2019-03-09T23:15:11.192Z,9.80
2019-03-09T23:17:42.096Z,9.80
2019-03-09T23:20:13.387Z,9.90
2019-03-09T23:22:44.093Z,9.90
2019-03-09T23:25:15.206Z,9.90
2019-03-09T23:27:45.791Z,10.00
2019-03-09T23:30:17.548Z,10.00
2019-03-09T23:32:48.924Z,10.10
2019-03-09T23:35:20.619Z,10.10
2019-03-09T23:37:51.332Z,10.20
2019-03-09T23:40:22.746Z,10.20
2019-03-09T23:42:53.501Z,10.20
2019-03-09T23:45:24.284Z,10.30
2019-03-09T23:47:55.155Z,10.30
2019-03-09T23:50:27.060Z,10.30
2019-03-09T23:52:57.750Z,10.30
2019-03-09T23:55:28.574Z,10.30
2019-03-09T23:57:59.275Z,10.40
